Time;durP1;ratioP1;P1;durP2;ratioP2;P2;SDS_P1;SDS_P2;PMS_P1;PMS_P2;Temp;Humidity;BMP_temperature;BMP_pressure;BME280_temperature;BME280_humidity;BME280_pressure;Samples;Min_cycle;Max_cycle;Signal;HPM_P1;HPM_P2
2023/06/02 00:01:00;;;;;;;13.73;6.60;;;11.90;2.70;;;;;;4362582;28;657279;-68
2023/06/02 00:03:48;;;;;;;10.10;5.37;;;11.80;99.90;;;;;;4357635;28;657292;-68
2023/06/02 00:06:37;;;;;;;13.73;6.80;;;11.80;88.60;;;;;;4377419;27;657567;-69
2023/06/02 00:09:25;;;;;;;15.63;7.17;;;11.90;99.90;;;;;;4391149;27;657666;-68
2023/06/02 00:12:12;;;;;;;21.50;8.23;;;11.90;99.90;;;;;;4353976;28;658193;-68
2023/06/02 00:15:01;;;;;;;17.05;7.95;;;11.90;99.90;;;;;;4385234;27;657793;-67
2023/06/02 00:17:48;;;;;;;17.47;7.83;;;12.00;99.90;;;;;;4385292;27;658436;-67
2023/06/02 00:20:36;;;;;;;21.37;8.13;;;12.00;99.90;;;;;;4361774;27;657648;-69
2023/06/02 00:23:23;;;;;;;15.63;7.23;;;12.00;99.90;;;;;;4396389;27;658268;-68
2023/06/02 00:26:11;;;;;;;19.00;7.23;;;12.00;99.90;;;;;;4361755;28;658842;-68
2023/06/02 00:28:58;;;;;;;18.43;7.73;;;11.90;99.90;;;;;;4394459;27;658334;-68
2023/06/02 00:31:47;;;;;;;17.07;6.97;;;11.90;99.90;;;;;;4367609;27;658190;-70
2023/06/02 00:34:34;;;;;;;12.27;6.67;;;11.80;99.90;;;;;;4383815;28;658541;-69
2023/06/02 00:37:22;;;;;;;13.33;6.67;;;11.80;99.90;;;;;;4358289;27;657539;-67
2023/06/02 00:40:09;;;;;;;18.13;7.13;;;11.80;99.90;;;;;;4394664;27;657579;-68
2023/06/02 00:42:56;;;;;;;13.47;6.37;;;11.70;99.90;;;;;;4367553;27;657747;-67
2023/06/02 00:45:44;;;;;;;15.27;6.70;;;11.80;99.90;;;;;;4397091;27;657876;-68
2023/06/02 00:48:32;;;;;;;13.60;6.57;;;11.70;99.90;;;;;;4356239;27;658466;-68
2023/06/02 00:51:20;;;;;;;13.60;6.70;;;11.70;99.90;;;;;;4420828;27;658583;-69
2023/06/02 00:54:08;;;;;;;18.90;6.60;;;11.70;99.90;;;;;;4379839;28;659324;-68
2023/06/02 00:56:55;;;;;;;12.32;6.25;;;11.70;99.90;;;;;;4368456;28;657846;-69
2023/06/02 00:59:42;;;;;;;15.70;6.50;;;11.60;99.90;;;;;;4380451;27;658818;-69
2023/06/02 01:02:31;;;;;;;13.77;6.47;;;11.60;99.90;;;;;;4375857;28;657918;-69
2023/06/02 01:05:20;;;;;;;11.93;6.70;;;11.50;99.90;;;;;;4387130;28;658348;-67
2023/06/02 01:08:07;;;;;;;16.37;6.63;;;11.50;99.90;;;;;;4360559;28;658644;-68
2023/06/02 01:10:55;;;;;;;14.10;6.47;;;11.40;99.90;;;;;;4382722;28;658377;-67
2023/06/02 01:13:43;;;;;;;17.43;6.70;;;11.40;99.90;;;;;;4358963;28;658995;-68
2023/06/02 01:16:30;;;;;;;19.63;6.67;;;11.40;99.90;;;;;;4396243;27;657643;-69
2023/06/02 01:19:21;;;;;;;19.70;6.83;;;11.30;99.90;;;;;;4387942;27;659001;-68
2023/06/02 01:22:13;;;;;;;18.17;6.10;;;11.30;99.90;;;;;;4354239;28;658363;-68
2023/06/02 01:25:02;;;;;;;17.53;6.30;;;11.40;99.90;;;;;;4342354;28;657762;-69
2023/06/02 01:27:49;;;;;;;12.83;6.07;;;11.40;99.90;;;;;;4408225;27;658041;-67
2023/06/02 01:30:36;;;;;;;19.00;6.13;;;11.30;99.90;;;;;;4401950;27;657637;-68
2023/06/02 01:33:26;;;;;;;13.07;6.13;;;11.20;99.90;;;;;;4375047;28;657455;-67
2023/06/02 01:36:13;;;;;;;13.87;7.03;;;11.20;99.90;;;;;;4352597;28;658860;-67
2023/06/02 01:39:00;;;;;;;11.43;5.53;;;11.10;99.90;;;;;;4364001;27;657873;-68
2023/06/02 01:41:49;;;;;;;14.33;6.40;;;11.00;99.90;;;;;;4386880;27;658608;-69
2023/06/02 01:44:36;;;;;;;9.77;5.53;;;10.90;99.90;;;;;;4375414;27;657926;-68
2023/06/02 01:47:24;;;;;;;16.33;6.30;;;11.00;99.90;;;;;;4382300;28;656590;-69
2023/06/02 01:50:11;;;;;;;16.53;6.10;;;11.00;99.90;;;;;;4358720;28;658075;-69
2023/06/02 01:52:58;;;;;;;12.73;5.70;;;11.00;99.90;;;;;;4378360;27;658541;-68
2023/06/02 01:55:47;;;;;;;14.63;6.47;;;11.10;99.90;;;;;;4364358;27;657916;-68
2023/06/02 01:58:36;;;;;;;17.40;5.93;;;11.20;99.90;;;;;;4377521;28;657589;-67
2023/06/02 02:01:23;;;;;;;14.60;6.20;;;11.20;99.90;;;;;;4354587;28;659127;-68
2023/06/02 02:04:10;;;;;;;13.38;6.35;;;11.10;99.90;;;;;;4397045;27;657815;-69
2023/06/02 02:07:00;;;;;;;17.90;6.50;;;11.10;99.90;;;;;;4398643;27;658604;-67
2023/06/02 02:09:48;;;;;;;12.67;6.13;;;11.10;99.90;;;;;;4352633;28;658391;-68
2023/06/02 02:12:35;;;;;;;15.43;6.47;;;11.10;99.90;;;;;;4366359;28;657981;-69
2023/06/02 02:15:25;;;;;;;14.53;6.10;;;11.10;99.90;;;;;;4391937;28;658394;-67
2023/06/02 02:18:13;;;;;;;17.17;6.50;;;11.10;99.90;;;;;;4377755;27;658133;-68
2023/06/02 02:21:00;;;;;;;12.70;6.50;;;11.10;99.90;;;;;;4405041;27;657821;-69
2023/06/02 02:23:47;;;;;;;14.53;6.00;;;11.10;99.90;;;;;;4394945;27;658650;-69
2023/06/02 02:26:35;;;;;;;13.13;5.97;;;11.10;99.90;;;;;;4395830;27;657519;-68
2023/06/02 02:29:22;;;;;;;15.10;6.23;;;11.00;99.90;;;;;;4361454;28;658847;-67
2023/06/02 02:32:11;;;;;;;15.93;6.23;;;11.00;99.90;;;;;;4375516;28;657217;-68
2023/06/02 02:34:58;;;;;;;15.93;6.47;;;11.00;99.90;;;;;;4355479;28;657796;-67
2023/06/02 02:37:46;;;;;;;12.50;6.23;;;10.90;99.90;;;;;;4366732;28;657570;-69
2023/06/02 02:40:33;;;;;;;12.40;6.23;;;10.90;99.90;;;;;;4379521;28;658032;-68
2023/06/02 02:43:21;;;;;;;12.37;6.73;;;10.90;99.90;;;;;;4372313;28;657522;-69
2023/06/02 02:46:08;;;;;;;13.33;6.00;;;10.80;99.90;;;;;;4378231;28;658328;-70
2023/06/02 02:48:57;;;;;;;17.43;7.03;;;10.80;99.90;;;;;;4376763;27;659135;-69
2023/06/02 02:51:44;;;;;;;12.27;5.87;;;10.80;99.90;;;;;;4376276;28;658646;-68
2023/06/02 02:54:32;;;;;;;15.03;7.07;;;10.80;99.90;;;;;;4360938;28;658867;-68
2023/06/02 02:57:19;;;;;;;14.57;6.70;;;10.70;99.90;;;;;;4378477;28;658072;-67
2023/06/02 03:00:09;;;;;;;14.80;6.33;;;10.70;99.90;;;;;;4385605;27;659156;-67
2023/06/02 03:02:56;;;;;;;12.03;6.33;;;10.70;99.90;;;;;;4358799;28;659206;-68
2023/06/02 03:05:45;;;;;;;12.73;6.97;;;10.70;99.90;;;;;;4389052;27;657976;-68
2023/06/02 03:08:32;;;;;;;17.10;6.43;;;10.60;99.90;;;;;;4365276;28;658162;-68
2023/06/02 03:11:21;;;;;;;14.67;7.07;;;10.70;99.90;;;;;;4390824;27;658109;-69
2023/06/02 03:14:08;;;;;;;16.57;7.20;;;10.70;99.90;;;;;;4381940;28;659560;-67
2023/06/02 03:16:56;;;;;;;15.18;6.82;;;10.70;99.90;;;;;;4369449;28;657913;-69
2023/06/02 03:19:43;;;;;;;11.70;6.87;;;10.70;99.90;;;;;;4388418;27;657844;-67
2023/06/02 03:22:33;;;;;;;11.70;6.30;;;10.70;99.90;;;;;;4378469;27;658517;-68
2023/06/02 03:25:21;;;;;;;12.70;6.20;;;10.70;99.90;;;;;;4371654;27;657650;-69
2023/06/02 03:28:08;;;;;;;12.40;6.50;;;10.70;99.90;;;;;;4383023;28;657866;-68
2023/06/02 03:30:55;;;;;;;12.23;6.87;;;10.80;99.90;;;;;;4383962;27;658331;-68
2023/06/02 03:33:42;;;;;;;21.60;6.93;;;10.80;99.90;;;;;;4384407;27;658868;-68
2023/06/02 03:36:34;;;;;;;10.90;6.53;;;10.90;99.90;;;;;;4394952;27;657775;-69
2023/06/02 03:39:23;;;;;;;14.63;6.60;;;10.90;99.90;;;;;;4391085;27;658065;-68
2023/06/02 03:42:10;;;;;;;14.63;7.00;;;10.90;99.90;;;;;;4372759;27;657953;-69
2023/06/02 03:44:57;;;;;;;15.80;7.03;;;10.90;99.90;;;;;;4392629;27;658048;-67
2023/06/02 03:47:45;;;;;;;16.27;7.07;;;10.90;99.90;;;;;;4383841;28;657681;-68
2023/06/02 03:50:32;;;;;;;21.10;8.07;;;10.90;99.90;;;;;;4386018;28;658871;-69
2023/06/02 03:53:21;;;;;;;14.23;7.57;;;11.00;99.90;;;;;;4382724;28;658006;-69
2023/06/02 03:56:09;;;;;;;17.27;7.03;;;11.10;99.90;;;;;;4386756;27;658420;-67
2023/06/02 03:58:57;;;;;;;17.90;7.17;;;11.20;99.90;;;;;;4376686;27;658288;-67
2023/06/02 04:01:44;;;;;;;19.60;7.27;;;11.30;99.90;;;;;;4377936;28;658133;-68
2023/06/02 04:04:31;;;;;;;20.37;8.63;;;11.40;99.90;;;;;;4397062;27;657820;-69
2023/06/02 04:07:19;;;;;;;13.77;7.40;;;11.40;99.90;;;;;;4380978;28;657578;-68
2023/06/02 04:10:07;;;;;;;23.23;9.03;;;11.60;99.90;;;;;;4357729;28;657952;-68
2023/06/02 04:12:55;;;;;;;25.53;9.20;;;11.70;99.90;;;;;;4384226;27;658612;-68
2023/06/02 04:15:43;;;;;;;19.73;8.95;;;11.80;99.90;;;;;;4364572;28;658605;-68
2023/06/02 04:18:30;;;;;;;23.40;9.00;;;12.00;99.90;;;;;;4363173;28;657558;-69
2023/06/02 04:21:18;;;;;;;21.83;8.90;;;12.10;99.90;;;;;;4386554;28;658248;-69
2023/06/02 04:24:05;;;;;;;25.13;8.83;;;12.20;99.90;;;;;;4385921;27;657901;-69
2023/06/02 04:26:52;;;;;;;22.97;8.70;;;12.20;99.90;;;;;;4355852;28;658327;-67
2023/06/02 04:29:42;;;;;;;18.93;8.70;;;12.30;99.90;;;;;;4341867;28;658515;-69
2023/06/02 04:32:30;;;;;;;21.47;9.27;;;12.40;99.90;;;;;;4358921;28;658012;-67
2023/06/02 04:35:17;;;;;;;21.60;8.77;;;12.50;99.90;;;;;;4337892;28;659342;-68
2023/06/02 04:38:04;;;;;;;24.40;9.77;;;12.60;99.90;;;;;;4360191;28;659076;-68
2023/06/02 04:40:51;;;;;;;20.20;8.37;;;12.80;99.90;;;;;;4323285;28;657655;-68
2023/06/02 04:43:39;;;;;;;22.03;9.23;;;12.80;99.90;;;;;;4349421;28;658112;-67
2023/06/02 04:46:28;;;;;;;20.83;9.10;;;12.90;99.90;;;;;;4327964;28;657443;-68
2023/06/02 04:49:15;;;;;;;19.93;8.57;;;12.90;99.90;;;;;;4337254;28;657226;-69
2023/06/02 04:52:05;;;;;;;20.10;7.67;;;13.10;99.90;;;;;;4342724;28;659217;-68
2023/06/02 04:54:52;;;;;;;18.37;7.67;;;13.20;99.90;;;;;;4336988;28;658805;-67
2023/06/02 04:57:39;;;;;;;19.85;7.68;;;13.30;99.90;;;;;;4342167;28;657220;-68
2023/06/02 05:00:27;;;;;;;21.97;8.10;;;13.20;99.90;;;;;;4333668;28;657192;-68
2023/06/02 05:03:16;;;;;;;17.57;7.40;;;13.40;99.90;;;;;;4352026;28;659024;-68
2023/06/02 05:06:03;;;;;;;17.23;7.40;;;13.50;99.90;;;;;;4339033;28;658405;-68
2023/06/02 05:08:51;;;;;;;15.10;7.40;;;13.60;99.90;;;;;;4345273;28;657945;-69
2023/06/02 05:11:39;;;;;;;26.50;8.30;;;13.60;99.90;;;;;;4346839;28;658240;-68
2023/06/02 05:14:27;;;;;;;18.10;7.70;;;13.70;99.90;;;;;;4325469;28;657428;-68
2023/06/02 05:17:15;;;;;;;16.67;7.63;;;13.80;99.90;;;;;;4344399;28;657649;-68
2023/06/02 05:20:04;;;;;;;19.17;7.80;;;13.90;99.90;;;;;;4324217;28;658782;-67
2023/06/02 05:22:52;;;;;;;24.07;7.70;;;14.00;99.90;;;;;;4323108;28;658222;-68
2023/06/02 05:25:40;;;;;;;15.13;7.20;;;14.20;99.90;;;;;;4363489;27;657864;-67
2023/06/02 05:28:27;;;;;;;15.97;6.97;;;14.20;99.90;;;;;;4355218;28;658196;-67
2023/06/02 05:31:15;;;;;;;15.83;6.83;;;14.30;99.90;;;;;;4376323;28;659103;-69
2023/06/02 05:34:02;;;;;;;12.70;6.40;;;14.30;99.90;;;;;;4378877;28;658448;-67
2023/06/02 05:36:52;;;;;;;12.97;6.00;;;14.40;99.90;;;;;;4370738;28;657684;-69
2023/06/02 05:39:39;;;;;;;16.10;6.93;;;14.30;99.90;;;;;;4378253;28;657712;-67
2023/06/02 05:42:26;;;;;;;19.00;7.43;;;14.50;99.90;;;;;;4356772;28;657790;-67
2023/06/02 05:45:13;;;;;;;16.97;6.70;;;14.60;99.90;;;;;;4374460;28;658095;-68
2023/06/02 05:48:01;;;;;;;25.27;9.37;;;14.80;99.90;;;;;;4351583;28;658483;-68
2023/06/02 05:50:48;;;;;;;22.55;8.93;;;14.80;99.90;;;;;;4375829;28;658418;-68
2023/06/02 05:53:37;;;;;;;21.20;9.03;;;14.90;99.90;;;;;;4354780;28;657677;-68
2023/06/02 05:56:25;;;;;;;16.37;7.43;;;15.00;99.90;;;;;;4375106;28;657654;-67
2023/06/02 05:59:12;;;;;;;16.70;7.17;;;14.90;99.90;;;;;;4360502;28;658619;-68
2023/06/02 06:01:59;;;;;;;15.03;6.47;;;15.00;99.90;;;;;;4377003;28;657178;-68
2023/06/02 06:04:47;;;;;;;16.83;6.63;;;15.00;99.90;;;;;;4356129;28;659265;-67
2023/06/02 06:07:34;;;;;;;17.30;7.57;;;15.10;99.90;;;;;;4374447;28;657445;-76
2023/06/02 06:10:23;;;;;;;21.03;8.43;;;15.30;99.90;;;;;;4355997;28;657496;-75
2023/06/02 06:13:10;;;;;;;24.52;8.80;;;15.20;99.90;;;;;;4359251;28;658637;-74
2023/06/02 06:15:57;;;;;;;29.13;9.17;;;15.30;99.90;;;;;;4378885;28;657987;-75
2023/06/02 06:18:45;;;;;;;23.80;9.63;;;15.30;99.90;;;;;;4377397;28;657812;-75
2023/06/02 06:21:32;;;;;;;26.37;12.03;;;15.30;99.90;;;;;;4381953;28;659008;-75
2023/06/02 06:24:20;;;;;;;24.77;9.93;;;15.50;99.90;;;;;;4373373;27;658590;-76
2023/06/02 06:27:08;;;;;;;24.60;10.37;;;15.70;99.90;;;;;;4345245;28;658551;-77
2023/06/02 06:29:56;;;;;;;27.53;10.97;;;15.70;99.90;;;;;;4358772;28;660230;-76
2023/06/02 06:32:43;;;;;;;30.70;11.70;;;15.80;99.90;;;;;;4361751;28;658541;-75
2023/06/02 06:35:30;;;;;;;28.50;11.00;;;15.90;99.90;;;;;;4363034;28;659339;-74
2023/06/02 06:38:17;;;;;;;21.97;10.00;;;16.10;99.90;;;;;;4377585;28;660004;-74
2023/06/02 06:41:05;;;;;;;31.07;10.07;;;15.80;99.90;;;;;;4376943;28;659600;-74
2023/06/02 06:43:53;;;;;;;22.40;8.93;;;16.10;99.90;;;;;;4350727;28;660303;-76
2023/06/02 06:46:41;;;;;;;23.67;9.23;;;16.20;99.90;;;;;;4355636;28;657749;-74
2023/06/02 06:49:28;;;;;;;25.50;9.20;;;16.40;99.90;;;;;;4378348;28;657526;-73
2023/06/02 06:52:15;;;;;;;22.38;6.82;;;16.10;99.90;;;;;;4359913;28;657471;-74
2023/06/02 06:55:02;;;;;;;24.20;7.13;;;16.00;99.90;;;;;;4384111;28;658873;-73
2023/06/02 06:57:50;;;;;;;13.43;6.07;;;16.40;99.90;;;;;;4367010;28;658185;-73
2023/06/02 07:00:39;;;;;;;17.73;6.17;;;16.70;99.90;;;;;;4382020;28;658707;-75
2023/06/02 07:03:26;;;;;;;18.23;6.30;;;17.00;99.90;;;;;;4358696;28;658261;-75
2023/06/02 07:06:13;;;;;;;21.33;5.53;;;17.40;99.90;;;;;;4381670;28;659175;-76
2023/06/02 07:09:01;;;;;;;16.33;5.40;;;17.70;99.90;;;;;;4357609;28;657532;-75
2023/06/02 07:11:48;;;;;;;15.27;5.13;;;17.70;99.90;;;;;;4402222;27;658437;-76
2023/06/02 07:14:35;;;;;;;20.15;6.03;;;17.60;99.90;;;;;;4356972;28;657622;-75
2023/06/02 07:17:24;;;;;;;17.73;5.50;;;17.70;99.90;;;;;;4382428;27;658532;-75
2023/06/02 07:20:13;;;;;;;11.30;4.53;;;17.90;99.90;;;;;;4361514;28;657886;-77
2023/06/02 07:23:01;;;;;;;11.60;4.63;;;17.50;99.90;;;;;;4363036;28;658139;-74
2023/06/02 07:25:48;;;;;;;15.17;5.13;;;17.50;99.90;;;;;;4376664;28;657442;-76
2023/06/02 07:28:36;;;;;;;15.37;4.93;;;17.50;99.90;;;;;;4357977;28;658183;-74
2023/06/02 07:31:23;;;;;;;14.57;4.27;;;17.80;99.90;;;;;;4386544;28;658289;-75
2023/06/02 07:34:11;;;;;;;15.60;4.43;;;17.70;99.90;;;;;;4361393;28;657830;-75
2023/06/02 07:37:00;;;;;;;12.67;4.50;;;18.00;99.90;;;;;;4380556;28;658246;-76
2023/06/02 07:39:48;;;;;;;19.13;4.60;;;18.20;99.90;;;;;;4359734;28;658912;-75
2023/06/02 07:42:35;;;;;;;22.63;5.53;;;18.30;99.90;;;;;;4370211;28;658521;-75
2023/06/02 07:45:22;;;;;;;16.37;4.53;;;18.10;99.90;;;;;;4377384;28;659053;-75
2023/06/02 07:48:10;;;;;;;12.80;4.80;;;18.20;99.90;;;;;;4385645;28;658654;-75
2023/06/02 07:50:59;;;;;;;16.83;5.50;;;18.20;99.90;;;;;;4386588;28;657398;-73
2023/06/02 07:53:46;;;;;;;17.47;5.47;;;18.20;99.90;;;;;;4361441;28;658461;-73
2023/06/02 07:56:33;;;;;;;21.47;5.60;;;18.20;99.90;;;;;;4375125;28;658655;-76
2023/06/02 07:59:22;;;;;;;13.13;6.50;;;18.10;99.90;;;;;;4359686;28;657848;-75
2023/06/02 08:02:10;;;;;;;16.30;6.13;;;18.10;99.90;;;;;;4375998;28;657645;-74
2023/06/02 08:04:57;;;;;;;13.03;5.20;;;18.60;99.90;;;;;;4383882;28;659155;-77
2023/06/02 08:07:47;;;;;;;13.60;5.50;;;18.50;99.90;;;;;;4369802;28;657733;-75
2023/06/02 08:10:34;;;;;;;13.57;5.93;;;18.50;99.90;;;;;;4376411;28;657879;-77
2023/06/02 08:13:21;;;;;;;16.30;5.50;;;18.60;99.90;;;;;;4364649;28;657659;-74
2023/06/02 08:16:08;;;;;;;14.60;5.63;;;18.90;99.90;;;;;;4383269;28;658270;-76
2023/06/02 08:18:55;;;;;;;20.97;5.97;;;18.90;99.90;;;;;;4359121;28;657403;-74
2023/06/02 08:21:43;;;;;;;13.27;5.03;;;19.20;99.90;;;;;;4398791;28;658373;-75
2023/06/02 08:24:36;;;;;;;14.30;5.43;;;19.20;99.90;;;;;;4369421;28;658193;-74
2023/06/02 08:27:23;;;;;;;13.43;5.63;;;19.10;99.90;;;;;;4329082;27;657738;-75
2023/06/02 08:30:12;;;;;;;18.67;6.23;;;18.90;99.90;;;;;;4365341;28;658198;-76
2023/06/02 08:32:59;;;;;;;13.20;5.27;;;18.20;99.90;;;;;;4380654;28;658413;-76
2023/06/02 08:35:51;;;;;;;10.10;4.73;;;18.60;99.90;;;;;;4358109;27;657856;-78
2023/06/02 08:38:40;;;;;;;14.30;5.80;;;18.90;99.90;;;;;;4354091;28;658247;-78
2023/06/02 08:41:28;;;;;;;15.57;6.37;;;19.30;99.90;;;;;;4356030;28;659043;-76
2023/06/02 08:44:16;;;;;;;14.93;5.20;;;19.70;99.90;;;;;;4359791;28;657875;-78
2023/06/02 08:47:04;;;;;;;16.90;5.70;;;19.00;99.90;;;;;;4379671;28;658005;-79
2023/06/02 08:49:51;;;;;;;10.70;4.70;;;18.80;99.90;;;;;;4361605;28;657742;-75
2023/06/02 08:52:38;;;;;;;10.40;4.60;;;19.20;99.90;;;;;;4379483;28;658300;-74
2023/06/02 08:55:26;;;;;;;11.77;4.80;;;19.70;99.90;;;;;;4351621;28;657208;-78
2023/06/02 08:58:14;;;;;;;14.37;4.60;;;19.60;99.90;;;;;;4367351;28;658094;-78
2023/06/02 09:01:03;;;;;;;17.80;5.00;;;19.60;99.90;;;;;;4359109;28;657916;-77
2023/06/02 09:03:50;;;;;;;11.33;4.47;;;19.30;99.90;;;;;;4359453;28;657889;-77
2023/06/02 09:06:38;;;;;;;10.83;4.40;;;19.50;99.90;;;;;;4377785;28;659738;-75
2023/06/02 09:09:29;;;;;;;14.23;4.83;;;19.70;99.90;;;;;;4368797;28;657597;-75
2023/06/02 09:12:17;;;;;;;10.93;4.53;;;19.40;99.90;;;;;;4359347;28;657564;-75
2023/06/02 09:15:10;;;;;;;11.60;4.20;;;19.40;99.90;;;;;;4365960;28;657569;-74
2023/06/02 09:18:09;;;;;;;11.67;4.10;;;19.60;99.90;;;;;;4357010;28;658789;-76
2023/06/02 09:20:58;;;;;;;10.67;4.33;;;20.00;99.90;;;;;;4357976;28;657787;-74
2023/06/02 09:23:47;;;;;;;8.87;3.83;;;19.80;99.30;;;;;;4354819;27;660364;-78
2023/06/02 09:26:34;;;;;;;9.83;4.83;;;19.50;99.90;;;;;;4383641;28;657781;-76
2023/06/02 09:29:21;;;;;;;9.63;4.53;;;19.70;99.90;;;;;;4357625;28;657187;-77
2023/06/02 09:32:14;;;;;;;12.27;3.90;;;19.50;99.90;;;;;;4373387;28;657308;-76
2023/06/02 09:35:02;;;;;;;7.57;4.00;;;19.40;99.20;;;;;;4356206;28;657907;-76
2023/06/02 09:37:57;;;;;;;11.73;4.20;;;19.40;99.90;;;;;;4378189;28;656573;-74
2023/06/02 09:40:44;;;;;;;9.57;3.90;;;19.60;99.20;;;;;;4361488;28;657572;-76
2023/06/02 09:43:32;;;;;;;11.57;4.27;;;19.30;99.90;;;;;;4358233;28;656367;-74
2023/06/02 09:46:19;;;;;;;12.50;4.40;;;19.60;99.20;;;;;;4383391;28;657214;-74
2023/06/02 09:49:08;;;;;;;15.17;4.23;;;19.80;99.90;;;;;;4356491;27;657720;-73
2023/06/02 09:51:56;;;;;;;11.00;4.30;;;20.10;98.40;;;;;;4395519;27;658189;-73
2023/06/02 09:54:44;;;;;;;9.70;3.80;;;20.10;97.00;;;;;;4375462;28;658276;-73
2023/06/02 09:57:31;;;;;;;6.47;3.53;;;19.50;96.60;;;;;;4360797;28;656856;-73
2023/06/02 10:00:19;;;;;;;10.60;3.67;;;19.10;97.60;;;;;;4369195;27;656950;-72
2023/06/02 10:03:07;;;;;;;11.37;3.90;;;19.20;99.90;;;;;;4359467;28;657975;-74
2023/06/02 10:06:01;;;;;;;8.67;3.70;;;19.40;99.90;;;;;;4379718;28;657166;-73
2023/06/02 10:08:56;;;;;;;9.30;3.80;;;19.50;99.90;;;;;;4355818;28;656883;-72
2023/06/02 10:11:48;;;;;;;11.07;4.37;;;18.90;98.20;;;;;;4353774;28;656858;-74
2023/06/02 10:14:47;;;;;;;12.50;4.00;;;18.90;98.80;;;;;;4351252;28;657829;-73
2023/06/02 10:17:38;;;;;;;20.03;4.40;;;19.00;97.70;;;;;;4347624;28;658587;-73
2023/06/02 10:20:27;;;;;;;10.67;3.80;;;19.10;98.80;;;;;;4339797;27;657444;-73
2023/06/02 10:23:25;;;;;;;11.17;4.03;;;19.20;98.90;;;;;;4377867;28;657559;-73
2023/06/02 10:26:30;;;;;;;14.43;3.70;;;19.40;97.70;;;;;;4332642;28;658830;-72
2023/06/02 10:29:18;;;;;;;11.20;3.93;;;19.40;98.00;;;;;;4327935;28;657674;-72
2023/06/02 10:32:20;;;;;;;13.97;3.93;;;19.40;96.90;;;;;;4370230;28;657876;-71
2023/06/02 10:35:08;;;;;;;12.90;4.07;;;19.00;96.90;;;;;;4362800;27;657439;-71
2023/06/02 10:38:25;;;;;;;10.03;3.77;;;18.80;98.40;;;;;;4366286;28;658079;-71
2023/06/02 10:41:14;;;;;;;10.03;3.57;;;19.40;97.00;;;;;;4330875;28;658343;-72
2023/06/02 10:44:24;;;;;;;13.80;4.27;;;19.80;98.60;;;;;;4378344;27;657844;-72
2023/06/02 10:47:36;;;;;;;11.13;4.00;;;20.20;96.50;;;;;;4355315;27;657708;-73
2023/06/02 10:50:24;;;;;;;16.20;4.00;;;19.70;95.20;;;;;;4357014;28;657901;-74
2023/06/02 10:53:12;;;;;;;11.53;3.70;;;19.50;96.00;;;;;;4359115;28;658078;-74
2023/06/02 10:56:41;;;;;;;9.77;3.73;;;19.90;97.10;;;;;;4380530;28;657329;-73
2023/06/02 10:59:34;;;;;;;8.53;3.70;;;20.40;94.10;;;;;;4357532;28;657041;-76
2023/06/02 11:02:42;;;;;;;11.93;3.77;;;20.00;93.40;;;;;;4341223;28;657531;-76
2023/06/02 11:05:30;;;;;;;9.77;3.97;;;19.90;93.60;;;;;;4357688;28;658336;-77
2023/06/02 11:08:29;;;;;;;9.63;3.73;;;20.00;96.30;;;;;;4365295;28;657734;-74
2023/06/02 11:11:53;;;;;;;10.60;3.40;;;19.80;95.50;;;;;;4353467;28;657759;-73
2023/06/02 11:15:18;;;;;;;6.20;3.20;;;19.40;92.60;;;;;;4339060;28;658038;-72
2023/06/02 11:18:43;;;;;;;8.77;3.97;;;18.80;94.20;;;;;;4355316;28;657490;-71
2023/06/02 11:21:31;;;;;;;10.83;3.40;;;18.70;95.20;;;;;;4382463;28;657132;-74
2023/06/02 11:24:22;;;;;;;10.77;3.70;;;19.30;95.20;;;;;;4395639;27;658095;-74
2023/06/02 11:27:09;;;;;;;11.67;3.70;;;19.60;95.30;;;;;;4355770;28;658095;-74
2023/06/02 11:30:08;;;;;;;12.27;4.03;;;19.90;94.80;;;;;;4359413;28;658198;-73
2023/06/02 11:32:55;;;;;;;11.27;3.37;;;19.90;92.80;;;;;;4346866;27;657922;-73
2023/06/02 11:35:46;;;;;;;7.43;3.90;;;19.80;94.30;;;;;;4381339;28;658698;-73
2023/06/02 11:38:33;;;;;;;9.43;3.53;;;19.70;92.20;;;;;;4362504;28;658108;-73
2023/06/02 11:41:21;;;;;;;13.37;3.73;;;20.00;94.60;;;;;;4365875;28;656399;-73
2023/06/02 11:44:10;;;;;;;14.73;3.10;;;20.50;92.70;;;;;;4397400;28;659385;-78
2023/06/02 11:46:57;;;;;;;6.37;3.10;;;20.20;92.30;;;;;;4371347;27;657617;-74
2023/06/02 11:49:45;;;;;;;7.43;3.30;;;19.70;91.80;;;;;;4391699;28;656779;-73
2023/06/02 11:52:37;;;;;;;14.37;4.00;;;19.30;90.50;;;;;;4362386;28;657978;-75
2023/06/02 11:55:27;;;;;;;12.17;3.83;;;19.50;92.00;;;;;;4356322;28;657885;-74
2023/06/02 11:58:19;;;;;;;10.90;3.37;;;19.40;91.40;;;;;;4354967;27;657845;-74
2023/06/02 12:01:07;;;;;;;12.57;3.03;;;19.30;93.60;;;;;;4369794;28;657456;-74
2023/06/02 12:04:03;;;;;;;10.67;3.30;;;19.40;93.20;;;;;;4379559;28;657314;-74
2023/06/02 12:06:51;;;;;;;7.60;3.30;;;20.50;93.60;;;;;;4338138;28;657939;-74
2023/06/02 12:09:43;;;;;;;10.77;3.73;;;21.10;88.30;;;;;;4377443;28;657299;-74
2023/06/02 12:12:31;;;;;;;16.17;3.47;;;21.00;89.10;;;;;;4356090;28;658045;-74
2023/06/02 12:15:18;;;;;;;10.30;3.13;;;20.80;86.60;;;;;;4394032;28;659224;-75
2023/06/02 12:18:06;;;;;;;8.33;3.20;;;20.80;87.10;;;;;;4364290;28;658154;-75
2023/06/02 12:20:55;;;;;;;6.50;2.90;;;20.90;86.70;;;;;;4395494;28;656856;-74
2023/06/02 12:23:43;;;;;;;7.53;3.00;;;21.10;87.50;;;;;;4355597;28;657226;-75
2023/06/02 12:26:41;;;;;;;13.97;3.43;;;21.20;87.80;;;;;;4359630;28;656794;-74
2023/06/02 12:29:28;;;;;;;9.10;3.37;;;22.10;91.30;;;;;;4358564;28;659532;-74
2023/06/02 12:32:20;;;;;;;9.47;3.47;;;22.60;80.40;;;;;;4359552;28;656459;-74
2023/06/02 12:35:08;;;;;;;9.50;3.17;;;22.20;77.40;;;;;;4370031;28;657888;-75
2023/06/02 12:37:56;;;;;;;14.23;3.50;;;21.20;72.60;;;;;;4368757;28;657534;-74
2023/06/02 12:40:44;;;;;;;8.63;3.90;;;20.30;76.70;;;;;;4378121;27;657743;-73
2023/06/02 12:43:32;;;;;;;10.17;3.57;;;20.00;76.20;;;;;;4370939;27;656664;-74
2023/06/02 12:46:19;;;;;;;12.20;3.77;;;19.90;76.70;;;;;;4375381;28;657971;-74
2023/06/02 12:49:08;;;;;;;9.67;3.13;;;20.30;80.80;;;;;;4372221;28;657763;-74
2023/06/02 12:51:56;;;;;;;9.83;3.20;;;20.00;75.60;;;;;;4377355;28;656413;-72
2023/06/02 12:54:43;;;;;;;10.60;3.10;;;19.10;76.30;;;;;;4383844;28;656573;-74
2023/06/02 12:57:30;;;;;;;6.90;2.63;;;19.40;81.80;;;;;;4357475;28;658267;-73
2023/06/02 13:00:19;;;;;;;6.07;2.87;;;20.00;79.30;;;;;;4393268;27;656573;-74
2023/06/02 13:03:06;;;;;;;11.20;3.20;;;20.20;74.90;;;;;;4356802;28;657047;-73
2023/06/02 13:05:57;;;;;;;6.03;2.77;;;20.40;72.60;;;;;;4386217;28;657941;-75
2023/06/02 13:08:45;;;;;;;9.13;3.10;;;21.00;77.50;;;;;;4394251;27;656528;-74
2023/06/02 13:11:32;;;;;;;11.63;3.10;;;20.90;73.10;;;;;;4376519;28;657581;-74
2023/06/02 13:14:20;;;;;;;7.07;2.83;;;20.80;73.20;;;;;;4388643;28;657996;-75
2023/06/02 13:17:09;;;;;;;6.90;2.87;;;21.10;66.70;;;;;;4376298;28;658017;-74
2023/06/02 13:19:56;;;;;;;11.55;3.08;;;20.50;66.80;;;;;;4373245;27;656473;-75
2023/06/02 13:22:43;;;;;;;10.60;2.87;;;20.90;70.70;;;;;;4375500;28;659233;-74
2023/06/02 13:25:33;;;;;;;6.83;3.20;;;21.30;72.90;;;;;;4358616;28;657439;-74
2023/06/02 13:28:20;;;;;;;7.97;2.87;;;21.40;67.10;;;;;;4370866;28;656960;-75
2023/06/02 13:31:08;;;;;;;6.93;2.90;;;21.50;64.10;;;;;;4398075;28;657638;-75
2023/06/02 13:33:57;;;;;;;10.00;3.13;;;21.30;67.00;;;;;;4378975;28;656716;-74
2023/06/02 13:36:44;;;;;;;9.37;2.80;;;21.30;68.60;;;;;;4379383;28;657698;-74
2023/06/02 13:39:31;;;;;;;9.10;2.43;;;21.30;66.50;;;;;;4364841;28;657100;-74
2023/06/02 13:42:19;;;;;;;7.47;2.90;;;21.10;66.70;;;;;;4380361;28;656522;-73
2023/06/02 13:45:07;;;;;;;5.87;2.73;;;21.40;68.50;;;;;;4361392;28;656661;-74
2023/06/02 13:47:55;;;;;;;12.33;3.07;;;21.70;67.70;;;;;;4393788;28;655859;-74
2023/06/02 13:50:43;;;;;;;6.43;2.50;;;22.00;64.00;;;;;;4359707;28;658239;-73
2023/06/02 13:53:30;;;;;;;9.40;2.67;;;21.50;62.10;;;;;;4360528;28;656555;-72
2023/06/02 13:56:18;;;;;;;8.50;2.60;;;21.50;65.70;;;;;;4391885;28;657920;-73
2023/06/02 13:59:05;;;;;;;10.07;2.93;;;21.10;64.10;;;;;;4375335;27;656605;-73
2023/06/02 14:01:53;;;;;;;8.80;2.37;;;20.70;62.40;;;;;;4388171;28;659477;-73
2023/06/02 14:04:41;;;;;;;8.37;2.60;;;20.50;63.80;;;;;;4383063;28;656971;-73
2023/06/02 14:07:30;;;;;;;5.13;2.37;;;20.50;62.60;;;;;;4392349;28;657575;-73
2023/06/02 14:10:17;;;;;;;7.97;2.47;;;20.40;61.40;;;;;;4372747;27;656199;-72
2023/06/02 14:13:05;;;;;;;5.87;2.20;;;20.70;66.40;;;;;;4393102;27;657208;-73
2023/06/02 14:15:53;;;;;;;11.50;2.50;;;20.60;61.30;;;;;;4390248;27;656476;-74
2023/06/02 14:18:40;;;;;;;10.27;2.40;;;20.30;60.70;;;;;;4390068;27;658392;-74